sensor_id;sensor_type;location;lat;lon;timestamp;P1;durP1;ratioP1;P2;durP2;ratioP2
55330;SDS011;58851;42.984;20.336;2023-03-21T00:00:16;184.35;;;100.95;;
55330;SDS011;58851;42.984;20.336;2023-03-21T00:02:42;118.93;;;66.78;;
55330;SDS011;58851;42.984;20.336;2023-03-21T00:05:08;117.88;;;61.78;;
55330;SDS011;58851;42.984;20.336;2023-03-21T00:07:33;89.85;;;45.78;;
55330;SDS011;58851;42.984;20.336;2023-03-21T00:09:59;107.50;;;48.15;;
55330;SDS011;58851;42.984;20.336;2023-03-21T00:12:25;143.48;;;70.03;;
55330;SDS011;58851;42.984;20.336;2023-03-21T00:14:51;127.32;;;70.93;;
55330;SDS011;58851;42.984;20.336;2023-03-21T00:17:18;117.18;;;69.07;;
55330;SDS011;58851;42.984;20.336;2023-03-21T00:19:46;100.22;;;59.78;;
55330;SDS011;58851;42.984;20.336;2023-03-21T00:22:12;94.57;;;56.63;;
55330;SDS011;58851;42.984;20.336;2023-03-21T00:24:38;88.05;;;53.80;;
55330;SDS011;58851;42.984;20.336;2023-03-21T00:27:05;82.55;;;50.97;;
55330;SDS011;58851;42.984;20.336;2023-03-21T00:29:31;81.13;;;48.50;;
55330;SDS011;58851;42.984;20.336;2023-03-21T00:31:57;65.80;;;44.47;;
55330;SDS011;58851;42.984;20.336;2023-03-21T00:34:23;70.22;;;43.38;;
55330;SDS011;58851;42.984;20.336;2023-03-21T00:36:48;69.43;;;43.72;;
55330;SDS011;58851;42.984;20.336;2023-03-21T00:39:14;78.75;;;47.35;;
55330;SDS011;58851;42.984;20.336;2023-03-21T00:41:40;49.95;;;31.17;;
55330;SDS011;58851;42.984;20.336;2023-03-21T00:44:06;85.22;;;53.97;;
55330;SDS011;58851;42.984;20.336;2023-03-21T00:46:32;111.53;;;66.35;;
55330;SDS011;58851;42.984;20.336;2023-03-21T00:48:59;70.43;;;41.72;;
55330;SDS011;58851;42.984;20.336;2023-03-21T00:51:25;82.15;;;46.40;;
55330;SDS011;58851;42.984;20.336;2023-03-21T00:53:54;91.78;;;54.10;;
55330;SDS011;58851;42.984;20.336;2023-03-21T00:56:21;90.45;;;52.47;;
55330;SDS011;58851;42.984;20.336;2023-03-21T00:58:47;96.15;;;53.45;;
55330;SDS011;58851;42.984;20.336;2023-03-21T01:01:13;100.05;;;56.97;;
55330;SDS011;58851;42.984;20.336;2023-03-21T01:03:39;96.03;;;57.90;;
55330;SDS011;58851;42.984;20.336;2023-03-21T01:06:14;114.53;;;73.57;;
55330;SDS011;58851;42.984;20.336;2023-03-21T01:08:44;171.27;;;99.93;;
55330;SDS011;58851;42.984;20.336;2023-03-21T01:11:13;128.23;;;77.22;;
55330;SDS011;58851;42.984;20.336;2023-03-21T01:13:40;83.75;;;51.58;;
55330;SDS011;58851;42.984;20.336;2023-03-21T01:16:07;72.45;;;43.05;;
55330;SDS011;58851;42.984;20.336;2023-03-21T01:18:34;59.30;;;37.20;;
55330;SDS011;58851;42.984;20.336;2023-03-21T01:21:04;54.88;;;34.15;;
55330;SDS011;58851;42.984;20.336;2023-03-21T01:23:34;73.32;;;41.72;;
55330;SDS011;58851;42.984;20.336;2023-03-21T01:26:00;68.65;;;37.25;;
55330;SDS011;58851;42.984;20.336;2023-03-21T01:28:26;60.00;;;36.30;;
55330;SDS011;58851;42.984;20.336;2023-03-21T01:30:53;57.78;;;39.50;;
55330;SDS011;58851;42.984;20.336;2023-03-21T01:33:19;64.07;;;37.38;;
55330;SDS011;58851;42.984;20.336;2023-03-21T01:35:46;55.30;;;37.13;;
55330;SDS011;58851;42.984;20.336;2023-03-21T01:38:12;56.58;;;32.65;;
55330;SDS011;58851;42.984;20.336;2023-03-21T01:40:38;45.35;;;29.60;;
55330;SDS011;58851;42.984;20.336;2023-03-21T01:43:14;36.28;;;22.02;;
55330;SDS011;58851;42.984;20.336;2023-03-21T01:46:11;27.20;;;15.50;;
55330;SDS011;58851;42.984;20.336;2023-03-21T01:48:45;22.80;;;14.43;;
55330;SDS011;58851;42.984;20.336;2023-03-21T01:51:15;30.42;;;21.73;;
55330;SDS011;58851;42.984;20.336;2023-03-21T01:53:42;34.92;;;23.10;;
55330;SDS011;58851;42.984;20.336;2023-03-21T01:56:13;38.70;;;21.58;;
55330;SDS011;58851;42.984;20.336;2023-03-21T01:58:49;38.28;;;24.33;;
55330;SDS011;58851;42.984;20.336;2023-03-21T02:01:19;41.13;;;26.98;;
55330;SDS011;58851;42.984;20.336;2023-03-21T02:03:47;45.70;;;26.75;;
55330;SDS011;58851;42.984;20.336;2023-03-21T02:06:16;47.22;;;26.50;;
55330;SDS011;58851;42.984;20.336;2023-03-21T02:08:49;38.85;;;25.23;;
55330;SDS011;58851;42.984;20.336;2023-03-21T02:11:15;43.40;;;27.80;;
55330;SDS011;58851;42.984;20.336;2023-03-21T02:13:43;43.97;;;26.20;;
55330;SDS011;58851;42.984;20.336;2023-03-21T02:41:20;42.22;;;28.27;;
55330;SDS011;58851;42.984;20.336;2023-03-21T02:44:09;50.03;;;28.15;;
55330;SDS011;58851;42.984;20.336;2023-03-21T02:46:48;41.10;;;30.02;;
55330;SDS011;58851;42.984;20.336;2023-03-21T02:49:23;47.00;;;28.40;;
55330;SDS011;58851;42.984;20.336;2023-03-21T02:51:50;44.33;;;28.20;;
55330;SDS011;58851;42.984;20.336;2023-03-21T02:54:17;41.85;;;27.17;;
55330;SDS011;58851;42.984;20.336;2023-03-21T02:56:46;48.10;;;26.33;;
55330;SDS011;58851;42.984;20.336;2023-03-21T02:59:15;43.70;;;25.42;;
55330;SDS011;58851;42.984;20.336;2023-03-21T03:01:41;39.25;;;23.38;;
55330;SDS011;58851;42.984;20.336;2023-03-21T03:04:21;39.83;;;25.73;;
55330;SDS011;58851;42.984;20.336;2023-03-21T03:11:49;30.58;;;21.27;;
55330;SDS011;58851;42.984;20.336;2023-03-21T03:17:31;45.78;;;29.75;;
55330;SDS011;58851;42.984;20.336;2023-03-21T03:22:58;84.97;;;58.22;;
55330;SDS011;58851;42.984;20.336;2023-03-21T03:25:37;57.92;;;39.35;;
55330;SDS011;58851;42.984;20.336;2023-03-21T03:28:07;48.20;;;31.00;;
55330;SDS011;58851;42.984;20.336;2023-03-21T03:30:34;45.03;;;30.75;;
55330;SDS011;58851;42.984;20.336;2023-03-21T03:33:02;49.67;;;31.50;;
55330;SDS011;58851;42.984;20.336;2023-03-21T03:35:30;47.80;;;29.08;;
55330;SDS011;58851;42.984;20.336;2023-03-21T03:37:57;35.67;;;22.80;;
55330;SDS011;58851;42.984;20.336;2023-03-21T03:42:52;37.88;;;22.20;;
55330;SDS011;58851;42.984;20.336;2023-03-21T03:45:22;31.17;;;22.17;;
55330;SDS011;58851;42.984;20.336;2023-03-21T03:48:01;32.05;;;21.13;;
55330;SDS011;58851;42.984;20.336;2023-03-21T03:53:24;35.45;;;22.42;;
55330;SDS011;58851;42.984;20.336;2023-03-21T03:55:54;34.05;;;20.70;;
55330;SDS011;58851;42.984;20.336;2023-03-21T03:58:21;34.83;;;21.35;;
55330;SDS011;58851;42.984;20.336;2023-03-21T04:00:48;36.00;;;23.70;;
55330;SDS011;58851;42.984;20.336;2023-03-21T04:03:15;39.97;;;27.52;;
55330;SDS011;58851;42.984;20.336;2023-03-21T04:05:42;41.35;;;24.38;;
55330;SDS011;58851;42.984;20.336;2023-03-21T04:08:10;42.45;;;27.10;;
55330;SDS011;58851;42.984;20.336;2023-03-21T04:10:37;41.78;;;28.50;;
55330;SDS011;58851;42.984;20.336;2023-03-21T04:13:04;47.67;;;29.55;;
55330;SDS011;58851;42.984;20.336;2023-03-21T04:15:31;39.90;;;27.08;;
55330;SDS011;58851;42.984;20.336;2023-03-21T04:17:57;38.78;;;27.00;;
55330;SDS011;58851;42.984;20.336;2023-03-21T04:20:22;41.00;;;27.20;;
55330;SDS011;58851;42.984;20.336;2023-03-21T04:22:48;43.08;;;28.25;;
55330;SDS011;58851;42.984;20.336;2023-03-21T04:25:15;40.83;;;29.52;;
55330;SDS011;58851;42.984;20.336;2023-03-21T04:27:41;44.40;;;28.92;;
55330;SDS011;58851;42.984;20.336;2023-03-21T04:30:07;37.25;;;25.77;;
55330;SDS011;58851;42.984;20.336;2023-03-21T04:32:36;41.05;;;28.05;;
55330;SDS011;58851;42.984;20.336;2023-03-21T04:35:04;43.20;;;29.67;;
55330;SDS011;58851;42.984;20.336;2023-03-21T04:37:32;37.25;;;26.73;;
55330;SDS011;58851;42.984;20.336;2023-03-21T04:39:59;40.97;;;25.95;;
55330;SDS011;58851;42.984;20.336;2023-03-21T04:42:27;52.42;;;31.05;;
55330;SDS011;58851;42.984;20.336;2023-03-21T04:44:53;62.92;;;36.80;;
55330;SDS011;58851;42.984;20.336;2023-03-21T04:47:19;70.13;;;44.85;;
55330;SDS011;58851;42.984;20.336;2023-03-21T04:49:45;84.43;;;52.88;;
55330;SDS011;58851;42.984;20.336;2023-03-21T04:52:14;74.93;;;46.40;;
55330;SDS011;58851;42.984;20.336;2023-03-21T04:54:40;62.22;;;39.08;;
55330;SDS011;58851;42.984;20.336;2023-03-21T04:57:06;67.15;;;39.80;;
55330;SDS011;58851;42.984;20.336;2023-03-21T04:59:32;56.50;;;39.10;;
55330;SDS011;58851;42.984;20.336;2023-03-21T05:01:58;52.72;;;31.33;;
55330;SDS011;58851;42.984;20.336;2023-03-21T05:04:25;33.35;;;24.42;;
55330;SDS011;58851;42.984;20.336;2023-03-21T05:06:51;41.47;;;26.77;;
55330;SDS011;58851;42.984;20.336;2023-03-21T05:09:18;55.28;;;36.17;;
55330;SDS011;58851;42.984;20.336;2023-03-21T05:11:44;52.75;;;37.00;;
55330;SDS011;58851;42.984;20.336;2023-03-21T05:14:11;39.67;;;28.20;;
55330;SDS011;58851;42.984;20.336;2023-03-21T05:16:40;32.33;;;24.38;;
55330;SDS011;58851;42.984;20.336;2023-03-21T05:19:13;36.15;;;26.05;;
55330;SDS011;58851;42.984;20.336;2023-03-21T05:21:39;43.58;;;31.67;;
55330;SDS011;58851;42.984;20.336;2023-03-21T05:24:06;43.83;;;29.30;;
55330;SDS011;58851;42.984;20.336;2023-03-21T05:26:36;37.15;;;24.40;;
55330;SDS011;58851;42.984;20.336;2023-03-21T05:29:06;33.00;;;22.60;;
55330;SDS011;58851;42.984;20.336;2023-03-21T05:31:32;33.13;;;23.83;;
55330;SDS011;58851;42.984;20.336;2023-03-21T05:33:58;33.25;;;23.08;;
55330;SDS011;58851;42.984;20.336;2023-03-21T05:36:24;35.95;;;22.58;;
55330;SDS011;58851;42.984;20.336;2023-03-21T05:38:50;35.55;;;23.73;;
55330;SDS011;58851;42.984;20.336;2023-03-21T05:41:16;44.15;;;25.63;;
55330;SDS011;58851;42.984;20.336;2023-03-21T05:43:42;41.25;;;27.15;;
55330;SDS011;58851;42.984;20.336;2023-03-21T05:46:08;41.40;;;27.45;;
55330;SDS011;58851;42.984;20.336;2023-03-21T05:48:36;47.30;;;28.75;;
55330;SDS011;58851;42.984;20.336;2023-03-21T05:51:02;46.45;;;29.98;;
55330;SDS011;58851;42.984;20.336;2023-03-21T05:53:29;46.55;;;30.45;;
55330;SDS011;58851;42.984;20.336;2023-03-21T05:55:55;59.35;;;34.50;;
55330;SDS011;58851;42.984;20.336;2023-03-21T05:58:21;63.75;;;41.17;;
55330;SDS011;58851;42.984;20.336;2023-03-21T06:00:47;64.68;;;41.55;;
55330;SDS011;58851;42.984;20.336;2023-03-21T06:03:14;86.50;;;48.28;;
55330;SDS011;58851;42.984;20.336;2023-03-21T06:05:40;65.28;;;41.28;;
55330;SDS011;58851;42.984;20.336;2023-03-21T06:08:06;59.78;;;38.42;;
55330;SDS011;58851;42.984;20.336;2023-03-21T06:10:32;54.08;;;36.33;;
55330;SDS011;58851;42.984;20.336;2023-03-21T06:12:59;55.08;;;35.35;;
55330;SDS011;58851;42.984;20.336;2023-03-21T06:15:25;50.47;;;35.50;;
55330;SDS011;58851;42.984;20.336;2023-03-21T06:17:51;56.38;;;34.50;;
55330;SDS011;58851;42.984;20.336;2023-03-21T06:20:17;58.55;;;39.15;;
55330;SDS011;58851;42.984;20.336;2023-03-21T06:22:43;62.20;;;39.55;;
55330;SDS011;58851;42.984;20.336;2023-03-21T06:25:09;54.40;;;34.95;;
55330;SDS011;58851;42.984;20.336;2023-03-21T06:27:36;47.25;;;32.15;;
55330;SDS011;58851;42.984;20.336;2023-03-21T06:30:02;53.97;;;34.95;;
55330;SDS011;58851;42.984;20.336;2023-03-21T06:32:30;58.67;;;37.20;;
55330;SDS011;58851;42.984;20.336;2023-03-21T06:34:56;52.75;;;33.65;;
55330;SDS011;58851;42.984;20.336;2023-03-21T06:37:22;51.88;;;33.70;;
55330;SDS011;58851;42.984;20.336;2023-03-21T06:39:48;56.42;;;34.88;;
55330;SDS011;58851;42.984;20.336;2023-03-21T06:42:14;58.08;;;38.08;;
55330;SDS011;58851;42.984;20.336;2023-03-21T06:44:40;59.95;;;39.42;;
55330;SDS011;58851;42.984;20.336;2023-03-21T06:47:06;55.28;;;38.97;;
55330;SDS011;58851;42.984;20.336;2023-03-21T06:49:32;73.55;;;50.92;;
55330;SDS011;58851;42.984;20.336;2023-03-21T06:51:58;61.17;;;39.33;;
55330;SDS011;58851;42.984;20.336;2023-03-21T06:54:24;61.67;;;42.33;;
55330;SDS011;58851;42.984;20.336;2023-03-21T06:56:50;65.32;;;44.58;;
55330;SDS011;58851;42.984;20.336;2023-03-21T06:59:16;70.85;;;47.13;;
55330;SDS011;58851;42.984;20.336;2023-03-21T07:01:42;82.72;;;55.55;;
55330;SDS011;58851;42.984;20.336;2023-03-21T07:04:08;76.85;;;52.25;;
55330;SDS011;58851;42.984;20.336;2023-03-21T07:06:34;56.35;;;41.95;;
55330;SDS011;58851;42.984;20.336;2023-03-21T07:09:01;63.53;;;46.05;;
55330;SDS011;58851;42.984;20.336;2023-03-21T07:11:29;53.55;;;39.70;;
55330;SDS011;58851;42.984;20.336;2023-03-21T07:13:55;58.25;;;40.35;;
55330;SDS011;58851;42.984;20.336;2023-03-21T07:16:21;65.40;;;43.15;;
55330;SDS011;58851;42.984;20.336;2023-03-21T07:18:48;76.60;;;49.00;;
55330;SDS011;58851;42.984;20.336;2023-03-21T07:21:15;80.63;;;54.55;;
55330;SDS011;58851;42.984;20.336;2023-03-21T07:23:41;91.53;;;60.58;;
55330;SDS011;58851;42.984;20.336;2023-03-21T07:26:07;75.57;;;52.47;;
55330;SDS011;58851;42.984;20.336;2023-03-21T07:28:33;74.05;;;51.17;;
55330;SDS011;58851;42.984;20.336;2023-03-21T07:31:00;78.00;;;55.78;;
55330;SDS011;58851;42.984;20.336;2023-03-21T07:33:28;77.28;;;54.05;;
55330;SDS011;58851;42.984;20.336;2023-03-21T07:35:55;74.65;;;51.40;;
55330;SDS011;58851;42.984;20.336;2023-03-21T07:38:22;80.63;;;52.80;;
55330;SDS011;58851;42.984;20.336;2023-03-21T07:40:49;107.13;;;69.07;;
55330;SDS011;58851;42.984;20.336;2023-03-21T07:43:15;75.25;;;53.88;;
55330;SDS011;58851;42.984;20.336;2023-03-21T07:45:42;77.70;;;55.83;;
55330;SDS011;58851;42.984;20.336;2023-03-21T07:48:09;84.35;;;57.05;;
55330;SDS011;58851;42.984;20.336;2023-03-21T07:50:41;92.35;;;55.80;;
55330;SDS011;58851;42.984;20.336;2023-03-21T07:53:07;83.07;;;57.58;;
55330;SDS011;58851;42.984;20.336;2023-03-21T07:55:33;81.82;;;56.20;;
55330;SDS011;58851;42.984;20.336;2023-03-21T07:58:02;164.80;;;105.30;;
55330;SDS011;58851;42.984;20.336;2023-03-21T08:00:28;86.18;;;61.03;;
55330;SDS011;58851;42.984;20.336;2023-03-21T08:02:55;84.75;;;54.13;;
55330;SDS011;58851;42.984;20.336;2023-03-21T08:05:26;74.80;;;52.17;;
55330;SDS011;58851;42.984;20.336;2023-03-21T08:07:54;77.68;;;48.15;;
55330;SDS011;58851;42.984;20.336;2023-03-21T08:10:20;83.05;;;47.75;;
55330;SDS011;58851;42.984;20.336;2023-03-21T08:12:46;59.92;;;42.00;;
55330;SDS011;58851;42.984;20.336;2023-03-21T08:15:12;57.45;;;41.45;;
55330;SDS011;58851;42.984;20.336;2023-03-21T08:17:39;62.92;;;44.28;;
55330;SDS011;58851;42.984;20.336;2023-03-21T08:20:06;83.93;;;61.15;;
55330;SDS011;58851;42.984;20.336;2023-03-21T08:22:34;88.10;;;59.75;;
55330;SDS011;58851;42.984;20.336;2023-03-21T08:25:01;65.90;;;45.17;;
55330;SDS011;58851;42.984;20.336;2023-03-21T08:27:32;63.00;;;43.15;;
55330;SDS011;58851;42.984;20.336;2023-03-21T08:29:59;52.60;;;39.45;;
55330;SDS011;58851;42.984;20.336;2023-03-21T08:32:25;49.30;;;34.80;;
55330;SDS011;58851;42.984;20.336;2023-03-21T08:35:01;75.82;;;45.97;;
55330;SDS011;58851;42.984;20.336;2023-03-21T08:37:29;38.40;;;27.00;;
55330;SDS011;58851;42.984;20.336;2023-03-21T08:39:55;39.08;;;26.65;;
55330;SDS011;58851;42.984;20.336;2023-03-21T08:42:22;42.53;;;29.63;;
55330;SDS011;58851;42.984;20.336;2023-03-21T08:44:48;62.88;;;47.15;;
55330;SDS011;58851;42.984;20.336;2023-03-21T08:47:14;144.63;;;97.05;;
55330;SDS011;58851;42.984;20.336;2023-03-21T08:49:40;96.20;;;69.53;;
55330;SDS011;58851;42.984;20.336;2023-03-21T08:52:09;73.22;;;48.15;;
55330;SDS011;58851;42.984;20.336;2023-03-21T08:54:35;58.05;;;43.20;;
55330;SDS011;58851;42.984;20.336;2023-03-21T08:57:02;53.03;;;37.72;;
55330;SDS011;58851;42.984;20.336;2023-03-21T08:59:28;43.47;;;33.88;;
55330;SDS011;58851;42.984;20.336;2023-03-21T09:01:53;49.13;;;32.13;;
55330;SDS011;58851;42.984;20.336;2023-03-21T09:04:19;46.08;;;27.67;;
55330;SDS011;58851;42.984;20.336;2023-03-21T09:06:45;42.78;;;28.73;;
55330;SDS011;58851;42.984;20.336;2023-03-21T09:09:12;38.53;;;26.00;;
55330;SDS011;58851;42.984;20.336;2023-03-21T09:11:39;37.55;;;25.02;;
55330;SDS011;58851;42.984;20.336;2023-03-21T09:14:06;36.65;;;27.42;;
55330;SDS011;58851;42.984;20.336;2023-03-21T09:16:32;52.20;;;33.47;;
55330;SDS011;58851;42.984;20.336;2023-03-21T09:18:58;51.90;;;34.28;;
55330;SDS011;58851;42.984;20.336;2023-03-21T09:21:25;36.55;;;24.95;;
55330;SDS011;58851;42.984;20.336;2023-03-21T09:23:52;31.60;;;20.73;;
55330;SDS011;58851;42.984;20.336;2023-03-21T09:26:21;28.67;;;18.33;;
55330;SDS011;58851;42.984;20.336;2023-03-21T09:28:48;27.40;;;17.73;;
55330;SDS011;58851;42.984;20.336;2023-03-21T09:31:14;48.60;;;30.95;;
55330;SDS011;58851;42.984;20.336;2023-03-21T09:33:46;38.38;;;25.70;;
55330;SDS011;58851;42.984;20.336;2023-03-21T09:36:17;31.17;;;21.67;;
55330;SDS011;58851;42.984;20.336;2023-03-21T09:38:45;34.38;;;23.25;;
55330;SDS011;58851;42.984;20.336;2023-03-21T09:47:01;26.50;;;18.73;;
55330;SDS011;58851;42.984;20.336;2023-03-21T09:49:45;24.60;;;17.30;;
55330;SDS011;58851;42.984;20.336;2023-03-21T09:52:21;30.30;;;19.88;;
55330;SDS011;58851;42.984;20.336;2023-03-21T09:54:53;26.30;;;19.73;;
55330;SDS011;58851;42.984;20.336;2023-03-21T09:59:51;33.60;;;17.95;;
55330;SDS011;58851;42.984;20.336;2023-03-21T10:04:56;23.40;;;16.35;;
55330;SDS011;58851;42.984;20.336;2023-03-21T10:07:25;33.70;;;20.02;;
55330;SDS011;58851;42.984;20.336;2023-03-21T10:09:59;23.63;;;14.63;;
55330;SDS011;58851;42.984;20.336;2023-03-21T10:12:28;40.03;;;16.30;;
55330;SDS011;58851;42.984;20.336;2023-03-21T10:14:55;25.23;;;13.38;;
55330;SDS011;58851;42.984;20.336;2023-03-21T10:17:26;19.80;;;14.50;;
55330;SDS011;58851;42.984;20.336;2023-03-21T10:22:39;15.05;;;9.65;;
55330;SDS011;58851;42.984;20.336;2023-03-21T10:25:07;11.10;;;6.75;;
55330;SDS011;58851;42.984;20.336;2023-03-21T10:27:37;15.27;;;8.38;;
55330;SDS011;58851;42.984;20.336;2023-03-21T10:30:03;24.67;;;14.13;;
55330;SDS011;58851;42.984;20.336;2023-03-21T10:32:31;16.88;;;10.82;;
55330;SDS011;58851;42.984;20.336;2023-03-21T10:34:58;17.75;;;9.32;;
55330;SDS011;58851;42.984;20.336;2023-03-21T10:37:25;14.80;;;11.52;;
55330;SDS011;58851;42.984;20.336;2023-03-21T10:39:51;18.55;;;10.70;;
55330;SDS011;58851;42.984;20.336;2023-03-21T10:42:23;19.58;;;11.38;;
55330;SDS011;58851;42.984;20.336;2023-03-21T10:44:51;17.40;;;13.00;;
55330;SDS011;58851;42.984;20.336;2023-03-21T10:47:20;15.50;;;8.95;;
55330;SDS011;58851;42.984;20.336;2023-03-21T10:49:48;13.68;;;8.43;;
55330;SDS011;58851;42.984;20.336;2023-03-21T10:52:16;11.93;;;8.25;;
55330;SDS011;58851;42.984;20.336;2023-03-21T10:54:45;13.18;;;9.57;;
55330;SDS011;58851;42.984;20.336;2023-03-21T10:57:17;15.48;;;9.10;;
55330;SDS011;58851;42.984;20.336;2023-03-21T10:59:50;12.82;;;8.52;;
55330;SDS011;58851;42.984;20.336;2023-03-21T11:02:25;22.92;;;9.07;;
55330;SDS011;58851;42.984;20.336;2023-03-21T11:04:54;17.83;;;10.15;;
55330;SDS011;58851;42.984;20.336;2023-03-21T11:07:22;12.27;;;8.45;;
55330;SDS011;58851;42.984;20.336;2023-03-21T11:09:56;15.45;;;10.77;;
55330;SDS011;58851;42.984;20.336;2023-03-21T11:12:37;14.82;;;9.57;;
55330;SDS011;58851;42.984;20.336;2023-03-21T11:18:23;9.95;;;7.25;;
55330;SDS011;58851;42.984;20.336;2023-03-21T11:20:53;15.68;;;10.88;;
55330;SDS011;58851;42.984;20.336;2023-03-21T11:23:19;22.33;;;13.20;;
55330;SDS011;58851;42.984;20.336;2023-03-21T11:25:50;12.40;;;9.23;;
55330;SDS011;58851;42.984;20.336;2023-03-21T11:28:17;19.05;;;10.18;;
55330;SDS011;58851;42.984;20.336;2023-03-21T11:30:56;11.82;;;7.43;;
55330;SDS011;58851;42.984;20.336;2023-03-21T11:33:30;15.70;;;9.43;;
55330;SDS011;58851;42.984;20.336;2023-03-21T11:38:43;15.05;;;7.47;;
55330;SDS011;58851;42.984;20.336;2023-03-21T11:41:24;13.23;;;9.25;;
55330;SDS011;58851;42.984;20.336;2023-03-21T11:43:53;26.77;;;18.83;;
55330;SDS011;58851;42.984;20.336;2023-03-21T11:46:23;11.70;;;7.90;;
55330;SDS011;58851;42.984;20.336;2023-03-21T11:48:50;10.18;;;6.82;;
55330;SDS011;58851;42.984;20.336;2023-03-21T11:56:45;14.30;;;9.70;;
55330;SDS011;58851;42.984;20.336;2023-03-21T12:14:57;19.50;;;13.00;;
55330;SDS011;58851;42.984;20.336;2023-03-21T12:25:53;17.00;;;11.23;;
55330;SDS011;58851;42.984;20.336;2023-03-21T12:28:38;15.73;;;9.73;;
55330;SDS011;58851;42.984;20.336;2023-03-21T12:31:28;33.38;;;27.95;;
55330;SDS011;58851;42.984;20.336;2023-03-21T12:37:21;16.75;;;13.25;;
55330;SDS011;58851;42.984;20.336;2023-03-21T12:39:51;22.75;;;16.90;;
55330;SDS011;58851;42.984;20.336;2023-03-21T12:47:37;13.57;;;9.75;;
55330;SDS011;58851;42.984;20.336;2023-03-21T12:50:21;13.10;;;10.15;;
55330;SDS011;58851;42.984;20.336;2023-03-21T12:52:53;19.10;;;11.60;;
55330;SDS011;58851;42.984;20.336;2023-03-21T12:55:31;15.23;;;12.23;;
55330;SDS011;58851;42.984;20.336;2023-03-21T13:00:31;13.38;;;10.73;;
55330;SDS011;58851;42.984;20.336;2023-03-21T13:03:11;24.75;;;16.63;;
55330;SDS011;58851;42.984;20.336;2023-03-21T13:05:58;21.10;;;14.95;;
55330;SDS011;58851;42.984;20.336;2023-03-21T13:08:30;19.83;;;12.07;;
55330;SDS011;58851;42.984;20.336;2023-03-21T13:11:06;18.67;;;14.23;;
55330;SDS011;58851;42.984;20.336;2023-03-21T13:13:43;20.70;;;14.40;;
55330;SDS011;58851;42.984;20.336;2023-03-21T13:16:23;19.70;;;13.18;;
55330;SDS011;58851;42.984;20.336;2023-03-21T13:21:36;19.50;;;13.85;;
55330;SDS011;58851;42.984;20.336;2023-03-21T13:24:23;19.35;;;11.85;;
55330;SDS011;58851;42.984;20.336;2023-03-21T13:27:00;19.67;;;12.15;;
55330;SDS011;58851;42.984;20.336;2023-03-21T13:29:49;15.73;;;12.55;;
55330;SDS011;58851;42.984;20.336;2023-03-21T13:34:55;16.23;;;10.77;;
55330;SDS011;58851;42.984;20.336;2023-03-21T13:37:47;31.40;;;21.75;;
55330;SDS011;58851;42.984;20.336;2023-03-21T13:40:20;13.38;;;10.15;;
55330;SDS011;58851;42.984;20.336;2023-03-21T13:43:00;19.73;;;14.25;;
55330;SDS011;58851;42.984;20.336;2023-03-21T13:48:26;14.75;;;9.50;;
55330;SDS011;58851;42.984;20.336;2023-03-21T13:51:03;18.67;;;13.13;;
55330;SDS011;58851;42.984;20.336;2023-03-21T13:53:37;22.08;;;14.20;;
55330;SDS011;58851;42.984;20.336;2023-03-21T13:58:37;43.25;;;30.17;;
55330;SDS011;58851;42.984;20.336;2023-03-21T14:03:58;31.38;;;22.38;;
55330;SDS011;58851;42.984;20.336;2023-03-21T14:06:33;19.98;;;14.27;;
55330;SDS011;58851;42.984;20.336;2023-03-21T14:11:58;34.78;;;25.42;;
55330;SDS011;58851;42.984;20.336;2023-03-21T14:14:29;34.17;;;24.23;;
55330;SDS011;58851;42.984;20.336;2023-03-21T14:17:14;31.42;;;21.75;;
55330;SDS011;58851;42.984;20.336;2023-03-21T14:20:23;26.15;;;18.50;;
55330;SDS011;58851;42.984;20.336;2023-03-21T14:22:45;34.80;;;24.80;;
55330;SDS011;58851;42.984;20.336;2023-03-21T14:25:13;23.55;;;15.80;;
55330;SDS011;58851;42.984;20.336;2023-03-21T14:27:41;24.27;;;17.17;;
55330;SDS011;58851;42.984;20.336;2023-03-21T14:30:23;34.67;;;26.42;;
55330;SDS011;58851;42.984;20.336;2023-03-21T14:32:54;27.02;;;17.95;;
55330;SDS011;58851;42.984;20.336;2023-03-21T14:35:22;31.08;;;21.00;;
55330;SDS011;58851;42.984;20.336;2023-03-21T14:37:52;27.67;;;18.90;;
55330;SDS011;58851;42.984;20.336;2023-03-21T14:40:20;21.45;;;16.73;;
55330;SDS011;58851;42.984;20.336;2023-03-21T14:42:48;32.65;;;20.75;;
55330;SDS011;58851;42.984;20.336;2023-03-21T14:45:19;31.30;;;20.55;;
55330;SDS011;58851;42.984;20.336;2023-03-21T14:47:54;21.33;;;15.48;;
55330;SDS011;58851;42.984;20.336;2023-03-21T14:50:23;38.95;;;28.13;;
55330;SDS011;58851;42.984;20.336;2023-03-21T14:55:22;23.63;;;15.43;;
55330;SDS011;58851;42.984;20.336;2023-03-21T14:57:49;20.42;;;14.45;;
55330;SDS011;58851;42.984;20.336;2023-03-21T15:00:21;36.65;;;23.88;;
55330;SDS011;58851;42.984;20.336;2023-03-21T15:02:50;40.70;;;27.98;;
55330;SDS011;58851;42.984;20.336;2023-03-21T15:08:16;39.53;;;29.13;;
55330;SDS011;58851;42.984;20.336;2023-03-21T15:10:54;29.23;;;21.38;;
55330;SDS011;58851;42.984;20.336;2023-03-21T15:13:32;49.90;;;34.35;;
55330;SDS011;58851;42.984;20.336;2023-03-21T15:16:09;50.05;;;36.63;;
55330;SDS011;58851;42.984;20.336;2023-03-21T15:18:36;38.42;;;27.73;;
55330;SDS011;58851;42.984;20.336;2023-03-21T15:21:05;36.60;;;29.42;;
55330;SDS011;58851;42.984;20.336;2023-03-21T15:23:44;37.22;;;29.60;;
55330;SDS011;58851;42.984;20.336;2023-03-21T15:26:16;34.40;;;26.45;;
55330;SDS011;58851;42.984;20.336;2023-03-21T15:28:50;29.40;;;19.58;;
55330;SDS011;58851;42.984;20.336;2023-03-21T15:31:27;29.77;;;24.10;;
55330;SDS011;58851;42.984;20.336;2023-03-21T15:33:55;42.28;;;27.88;;
55330;SDS011;58851;42.984;20.336;2023-03-21T15:36:24;46.70;;;30.60;;
55330;SDS011;58851;42.984;20.336;2023-03-21T15:39:00;26.67;;;20.80;;
55330;SDS011;58851;42.984;20.336;2023-03-21T15:41:29;32.15;;;22.58;;
55330;SDS011;58851;42.984;20.336;2023-03-21T15:46:38;57.47;;;38.95;;
55330;SDS011;58851;42.984;20.336;2023-03-21T15:54:20;226.85;;;152.88;;
55330;SDS011;58851;42.984;20.336;2023-03-21T15:57:00;148.38;;;99.18;;
55330;SDS011;58851;42.984;20.336;2023-03-21T15:59:34;119.70;;;84.22;;
55330;SDS011;58851;42.984;20.336;2023-03-21T16:02:11;82.93;;;50.78;;
55330;SDS011;58851;42.984;20.336;2023-03-21T16:04:57;56.90;;;41.53;;
55330;SDS011;58851;42.984;20.336;2023-03-21T16:07:23;51.30;;;36.40;;
55330;SDS011;58851;42.984;20.336;2023-03-21T16:09:49;52.15;;;37.83;;
55330;SDS011;58851;42.984;20.336;2023-03-21T16:12:21;44.53;;;32.30;;
55330;SDS011;58851;42.984;20.336;2023-03-21T16:14:48;35.55;;;24.55;;
55330;SDS011;58851;42.984;20.336;2023-03-21T16:17:21;42.80;;;28.08;;
55330;SDS011;58851;42.984;20.336;2023-03-21T16:19:53;50.53;;;31.38;;
55330;SDS011;58851;42.984;20.336;2023-03-21T16:22:19;45.53;;;32.08;;
55330;SDS011;58851;42.984;20.336;2023-03-21T16:24:46;269.08;;;168.50;;
55330;SDS011;58851;42.984;20.336;2023-03-21T16:27:12;83.57;;;57.83;;
55330;SDS011;58851;42.984;20.336;2023-03-21T16:29:41;38.38;;;26.42;;
55330;SDS011;58851;42.984;20.336;2023-03-21T16:32:10;45.75;;;33.35;;